<?xml version="1.0" encoding="UTF-8" standalone="no" ?>
<gpx xmlns="http://www.topografix.com/GPX/1/1" xmlns:xsi="http://www.w3.org/2001/XMLSchema-instance" xsi:schemaLocation="http://www.topografix.com/GPX/1/1 http://www.topografix.com/GPX/1/1/gpx.xsd" version="1.1" creator="VisuGPX - https://www.visugpx.com">
  <metadata>
    <name>VTT Saverne / Le Petite Pierre</name>
    <desc><![CDATA[Sortie du Samedi de l\'école VTT de Saverne / la Petite Pierre
23Km]]></desc>
  </metadata>
  <trk>
    <name><![CDATA[Holux2011/09/10_14:05]]></name>
    <trkseg>
      <trkpt lat="48.82308" lon="7.40574">
        <ele>182.958054</ele>
        <time>2011-09-10T12:05:00Z</time>
      </trkpt>
      <trkpt lat="48.82296" lon="7.40559">
        <ele>211.004929</ele>
        <time>2011-09-10T12:09:29Z</time>
      </trkpt>
      <trkpt lat="48.8231" lon="7.40598">
        <ele>215.907272</ele>
        <time>2011-09-10T12:30:13Z</time>
      </trkpt>
      <trkpt lat="48.82293" lon="7.40636">
        <ele>210.266647</ele>
        <time>2011-09-10T12:30:25Z</time>
      </trkpt>
      <trkpt lat="48.82312" lon="7.40671">
        <ele>209.723679</ele>
        <time>2011-09-10T12:30:38Z</time>
      </trkpt>
      <trkpt lat="48.82398" lon="7.40746">
        <ele>212.637741</ele>
        <time>2011-09-10T12:31:05Z</time>
      </trkpt>
      <trkpt lat="48.8247" lon="7.40842">
        <ele>212.465866</ele>
        <time>2011-09-10T12:31:23Z</time>
      </trkpt>
      <trkpt lat="48.82504" lon="7.40854">
        <ele>210.610397</ele>
        <time>2011-09-10T12:31:29Z</time>
      </trkpt>
      <trkpt lat="48.82537" lon="7.4085">
        <ele>211.598679</ele>
        <time>2011-09-10T12:31:35Z</time>
      </trkpt>
      <trkpt lat="48.8257" lon="7.40861">
        <ele>211.665085</ele>
        <time>2011-09-10T12:31:42Z</time>
      </trkpt>
      <trkpt lat="48.82697" lon="7.41194">
        <ele>221.758835</ele>
        <time>2011-09-10T12:32:32Z</time>
      </trkpt>
      <trkpt lat="48.82692" lon="7.41149">
        <ele>207.848679</ele>
        <time>2011-09-10T12:35:34Z</time>
      </trkpt>
      <trkpt lat="48.82573" lon="7.4085">
        <ele>200.946335</ele>
        <time>2011-09-10T12:36:20Z</time>
      </trkpt>
      <trkpt lat="48.82586" lon="7.40806">
        <ele>203.293991</ele>
        <time>2011-09-10T12:36:30Z</time>
      </trkpt>
      <trkpt lat="48.82625" lon="7.40735">
        <ele>209.407272</ele>
        <time>2011-09-10T12:36:46Z</time>
      </trkpt>
      <trkpt lat="48.82645" lon="7.40642">
        <ele>212.579147</ele>
        <time>2011-09-10T12:37:04Z</time>
      </trkpt>
      <trkpt lat="48.82645" lon="7.40593">
        <ele>215.239304</ele>
        <time>2011-09-10T12:37:13Z</time>
      </trkpt>
      <trkpt lat="48.82619" lon="7.40457">
        <ele>213.395554</ele>
        <time>2011-09-10T12:37:39Z</time>
      </trkpt>
      <trkpt lat="48.82653" lon="7.40459">
        <ele>220.438522</ele>
        <time>2011-09-10T12:40:40Z</time>
      </trkpt>
      <trkpt lat="48.82682" lon="7.40475">
        <ele>225.58696</ele>
        <time>2011-09-10T12:40:47Z</time>
      </trkpt>
      <trkpt lat="48.82721" lon="7.40542">
        <ele>234.282272</ele>
        <time>2011-09-10T12:41:01Z</time>
      </trkpt>
      <trkpt lat="48.82745" lon="7.40569">
        <ele>235.907272</ele>
        <time>2011-09-10T12:41:08Z</time>
      </trkpt>
      <trkpt lat="48.82779" lon="7.4057">
        <ele>236.43071</ele>
        <time>2011-09-10T12:41:16Z</time>
      </trkpt>
      <trkpt lat="48.82869" lon="7.40534">
        <ele>242.05571</ele>
        <time>2011-09-10T12:41:47Z</time>
      </trkpt>
      <trkpt lat="48.83263" lon="7.41764">
        <ele>231.692429</ele>
        <time>2011-09-10T12:45:02Z</time>
      </trkpt>
      <trkpt lat="48.83278" lon="7.41809">
        <ele>229.872116</ele>
        <time>2011-09-10T12:45:09Z</time>
      </trkpt>
      <trkpt lat="48.833" lon="7.41842">
        <ele>231.426804</ele>
        <time>2011-09-10T12:46:47Z</time>
      </trkpt>
      <trkpt lat="48.83463" lon="7.41804">
        <ele>222.903366</ele>
        <time>2011-09-10T12:47:07Z</time>
      </trkpt>
      <trkpt lat="48.83536" lon="7.41796">
        <ele>224.129929</ele>
        <time>2011-09-10T12:47:15Z</time>
      </trkpt>
      <trkpt lat="48.83567" lon="7.41806">
        <ele>227.083054</ele>
        <time>2011-09-10T12:47:21Z</time>
      </trkpt>
      <trkpt lat="48.83674" lon="7.41905">
        <ele>256.01767</ele>
        <time>2011-09-10T12:47:46Z</time>
      </trkpt>
      <trkpt lat="48.83765" lon="7.42025">
        <ele>296.89267</ele>
        <time>2011-09-10T12:48:11Z</time>
      </trkpt>
      <trkpt lat="48.83819" lon="7.42072">
        <ele>299.650482</ele>
        <time>2011-09-10T12:48:26Z</time>
      </trkpt>
      <trkpt lat="48.83875" lon="7.42107">
        <ele>291.509857</ele>
        <time>2011-09-10T12:48:41Z</time>
      </trkpt>
      <trkpt lat="48.83978" lon="7.4222">
        <ele>290.408295</ele>
        <time>2011-09-10T12:49:19Z</time>
      </trkpt>
      <trkpt lat="48.8406" lon="7.42285">
        <ele>279.814545</ele>
        <time>2011-09-10T12:49:48Z</time>
      </trkpt>
      <trkpt lat="48.8411" lon="7.4234">
        <ele>280.759857</ele>
        <time>2011-09-10T12:50:07Z</time>
      </trkpt>
      <trkpt lat="48.84139" lon="7.42348">
        <ele>279.509857</ele>
        <time>2011-09-10T12:50:18Z</time>
      </trkpt>
      <trkpt lat="48.84159" lon="7.42265">
        <ele>252.352585</ele>
        <time>2011-09-10T12:50:42Z</time>
      </trkpt>
      <trkpt lat="48.8416" lon="7.42215">
        <ele>250.567429</ele>
        <time>2011-09-10T12:50:52Z</time>
      </trkpt>
      <trkpt lat="48.8414" lon="7.41928">
        <ele>235.68071</ele>
        <time>2011-09-10T12:51:40Z</time>
      </trkpt>
      <trkpt lat="48.84063" lon="7.41617">
        <ele>248.200241</ele>
        <time>2011-09-10T12:52:38Z</time>
      </trkpt>
      <trkpt lat="48.84053" lon="7.41522">
        <ele>244.661179</ele>
        <time>2011-09-10T12:52:55Z</time>
      </trkpt>
      <trkpt lat="48.84063" lon="7.41476">
        <ele>237.11821</ele>
        <time>2011-09-10T12:53:03Z</time>
      </trkpt>
      <trkpt lat="48.84063" lon="7.41285">
        <ele>257.291107</ele>
        <time>2011-09-10T12:53:38Z</time>
      </trkpt>
      <trkpt lat="48.8409" lon="7.41145">
        <ele>249.520554</ele>
        <time>2011-09-10T12:54:00Z</time>
      </trkpt>
      <trkpt lat="48.84121" lon="7.41135">
        <ele>249.520554</ele>
        <time>2011-09-10T12:54:57Z</time>
      </trkpt>
      <trkpt lat="48.84216" lon="7.41195">
        <ele>248.594772</ele>
        <time>2011-09-10T12:55:13Z</time>
      </trkpt>
      <trkpt lat="48.84223" lon="7.41151">
        <ele>238.68071</ele>
        <time>2011-09-10T12:55:24Z</time>
      </trkpt>
      <trkpt lat="48.84216" lon="7.41002">
        <ele>236.477585</ele>
        <time>2011-09-10T12:55:39Z</time>
      </trkpt>
      <trkpt lat="48.8422" lon="7.40907">
        <ele>236.340866</ele>
        <time>2011-09-10T12:55:51Z</time>
      </trkpt>
      <trkpt lat="48.84255" lon="7.40824">
        <ele>238.985397</ele>
        <time>2011-09-10T12:56:06Z</time>
      </trkpt>
      <trkpt lat="48.84286" lon="7.40815">
        <ele>244.918991</ele>
        <time>2011-09-10T12:56:19Z</time>
      </trkpt>
      <trkpt lat="48.84311" lon="7.40788">
        <ele>247.05571</ele>
        <time>2011-09-10T12:56:29Z</time>
      </trkpt>
      <trkpt lat="48.84332" lon="7.4075">
        <ele>243.543991</ele>
        <time>2011-09-10T12:56:37Z</time>
      </trkpt>
      <trkpt lat="48.84361" lon="7.40664">
        <ele>243.860397</ele>
        <time>2011-09-10T12:56:53Z</time>
      </trkpt>
      <trkpt lat="48.84369" lon="7.40573">
        <ele>244.989304</ele>
        <time>2011-09-10T12:57:08Z</time>
      </trkpt>
      <trkpt lat="48.84387" lon="7.40609">
        <ele>250.86821</ele>
        <time>2011-09-10T12:58:05Z</time>
      </trkpt>
      <trkpt lat="48.84392" lon="7.40651">
        <ele>261.119232</ele>
        <time>2011-09-10T12:58:27Z</time>
      </trkpt>
      <trkpt lat="48.84436" lon="7.40769">
        <ele>275.689545</ele>
        <time>2011-09-10T12:59:36Z</time>
      </trkpt>
      <trkpt lat="48.84483" lon="7.40827">
        <ele>277.947357</ele>
        <time>2011-09-10T13:00:16Z</time>
      </trkpt>
      <trkpt lat="48.84511" lon="7.40801">
        <ele>282.189545</ele>
        <time>2011-09-10T13:03:28Z</time>
      </trkpt>
      <trkpt lat="48.84574" lon="7.40644">
        <ele>296.783295</ele>
        <time>2011-09-10T13:04:00Z</time>
      </trkpt>
      <trkpt lat="48.84657" lon="7.40395">
        <ele>311.822357</ele>
        <time>2011-09-10T13:04:57Z</time>
      </trkpt>
      <trkpt lat="48.84578" lon="7.40254">
        <ele>293.994232</ele>
        <time>2011-09-10T13:05:34Z</time>
      </trkpt>
      <trkpt lat="48.84624" lon="7.40315">
        <ele>301.025482</ele>
        <time>2011-09-10T13:06:59Z</time>
      </trkpt>
      <trkpt lat="48.84653" lon="7.40337">
        <ele>304.150482</ele>
        <time>2011-09-10T13:07:13Z</time>
      </trkpt>
      <trkpt lat="48.84676" lon="7.40309">
        <ele>294.634857</ele>
        <time>2011-09-10T13:07:28Z</time>
      </trkpt>
      <trkpt lat="48.84687" lon="7.40265">
        <ele>295.869232</ele>
        <time>2011-09-10T13:07:46Z</time>
      </trkpt>
      <trkpt lat="48.8469" lon="7.40217">
        <ele>298.752045</ele>
        <time>2011-09-10T13:08:04Z</time>
      </trkpt>
      <trkpt lat="48.84678" lon="7.40124">
        <ele>302.072357</ele>
        <time>2011-09-10T13:08:39Z</time>
      </trkpt>
      <trkpt lat="48.84669" lon="7.3994">
        <ele>320.259857</ele>
        <time>2011-09-10T13:09:50Z</time>
      </trkpt>
      <trkpt lat="48.84684" lon="7.3985">
        <ele>330.98642</ele>
        <time>2011-09-10T13:10:20Z</time>
      </trkpt>
      <trkpt lat="48.84703" lon="7.39816">
        <ele>338.939545</ele>
        <time>2011-09-10T13:10:36Z</time>
      </trkpt>
      <trkpt lat="48.84732" lon="7.398">
        <ele>338.962982</ele>
        <time>2011-09-10T13:10:50Z</time>
      </trkpt>
      <trkpt lat="48.84795" lon="7.39806">
        <ele>333.408295</ele>
        <time>2011-09-10T13:11:29Z</time>
      </trkpt>
      <trkpt lat="48.84829" lon="7.39798">
        <ele>334.04892</ele>
        <time>2011-09-10T13:11:40Z</time>
      </trkpt>
      <trkpt lat="48.84859" lon="7.39807">
        <ele>337.033295</ele>
        <time>2011-09-10T13:11:52Z</time>
      </trkpt>
      <trkpt lat="48.84919" lon="7.39785">
        <ele>333.962982</ele>
        <time>2011-09-10T13:13:56Z</time>
      </trkpt>
      <trkpt lat="48.84924" lon="7.39739">
        <ele>331.79892</ele>
        <time>2011-09-10T13:17:38Z</time>
      </trkpt>
      <trkpt lat="48.84876" lon="7.39617">
        <ele>324.509857</ele>
        <time>2011-09-10T13:18:03Z</time>
      </trkpt>
      <trkpt lat="48.8482" lon="7.39448">
        <ele>310.947357</ele>
        <time>2011-09-10T13:18:27Z</time>
      </trkpt>
      <trkpt lat="48.84643" lon="7.39086">
        <ele>280.884857</ele>
        <time>2011-09-10T13:19:05Z</time>
      </trkpt>
      <trkpt lat="48.84654" lon="7.39041">
        <ele>284.23642</ele>
        <time>2011-09-10T13:19:17Z</time>
      </trkpt>
      <trkpt lat="48.84657" lon="7.38949">
        <ele>300.212982</ele>
        <time>2011-09-10T13:19:38Z</time>
      </trkpt>
      <trkpt lat="48.8464" lon="7.38912">
        <ele>306.564545</ele>
        <time>2011-09-10T13:19:55Z</time>
      </trkpt>
      <trkpt lat="48.84627" lon="7.38821">
        <ele>313.212982</ele>
        <time>2011-09-10T13:20:21Z</time>
      </trkpt>
      <trkpt lat="48.84624" lon="7.38674">
        <ele>306.064545</ele>
        <time>2011-09-10T13:21:03Z</time>
      </trkpt>
      <trkpt lat="48.84599" lon="7.38591">
        <ele>304.744232</ele>
        <time>2011-09-10T13:21:32Z</time>
      </trkpt>
      <trkpt lat="48.84576" lon="7.3862">
        <ele>313.689545</ele>
        <time>2011-09-10T13:22:13Z</time>
      </trkpt>
      <trkpt lat="48.84534" lon="7.387">
        <ele>321.29892</ele>
        <time>2011-09-10T13:22:34Z</time>
      </trkpt>
      <trkpt lat="48.84505" lon="7.38705">
        <ele>324.439545</ele>
        <time>2011-09-10T13:22:53Z</time>
      </trkpt>
      <trkpt lat="48.84488" lon="7.38666">
        <ele>324.689545</ele>
        <time>2011-09-10T13:23:14Z</time>
      </trkpt>
      <trkpt lat="48.84459" lon="7.38653">
        <ele>329.220795</ele>
        <time>2011-09-10T13:23:35Z</time>
      </trkpt>
      <trkpt lat="48.84427" lon="7.38654">
        <ele>333.697357</ele>
        <time>2011-09-10T13:23:55Z</time>
      </trkpt>
      <trkpt lat="48.8437" lon="7.38617">
        <ele>336.20517</ele>
        <time>2011-09-10T13:24:21Z</time>
      </trkpt>
      <trkpt lat="48.84388" lon="7.38584">
        <ele>346.42392</ele>
        <time>2011-09-10T13:27:06Z</time>
      </trkpt>
      <trkpt lat="48.84364" lon="7.38603">
        <ele>359.494232</ele>
        <time>2011-09-10T13:27:33Z</time>
      </trkpt>
      <trkpt lat="48.84417" lon="7.38826">
        <ele>359.89267</ele>
        <time>2011-09-10T13:29:47Z</time>
      </trkpt>
      <trkpt lat="48.84424" lon="7.38916">
        <ele>379.845795</ele>
        <time>2011-09-10T13:30:06Z</time>
      </trkpt>
      <trkpt lat="48.84425" lon="7.38961">
        <ele>376.533295</ele>
        <time>2011-09-10T13:30:19Z</time>
      </trkpt>
      <trkpt lat="48.8441" lon="7.39048">
        <ele>366.791107</ele>
        <time>2011-09-10T13:30:53Z</time>
      </trkpt>
      <trkpt lat="48.84379" lon="7.39175">
        <ele>367.572357</ele>
        <time>2011-09-10T13:31:43Z</time>
      </trkpt>
      <trkpt lat="48.84348" lon="7.39179">
        <ele>366.728607</ele>
        <time>2011-09-10T13:31:56Z</time>
      </trkpt>
      <trkpt lat="48.84292" lon="7.39145">
        <ele>353.837982</ele>
        <time>2011-09-10T13:32:16Z</time>
      </trkpt>
      <trkpt lat="48.84176" lon="7.38986">
        <ele>354.603607</ele>
        <time>2011-09-10T13:35:32Z</time>
      </trkpt>
      <trkpt lat="48.84186" lon="7.38942">
        <ele>355.502045</ele>
        <time>2011-09-10T13:35:54Z</time>
      </trkpt>
      <trkpt lat="48.84175" lon="7.38896">
        <ele>353.95517</ele>
        <time>2011-09-10T13:36:08Z</time>
      </trkpt>
      <trkpt lat="48.84118" lon="7.38858">
        <ele>364.962982</ele>
        <time>2011-09-10T13:36:33Z</time>
      </trkpt>
      <trkpt lat="48.84089" lon="7.38861">
        <ele>371.166107</ele>
        <time>2011-09-10T13:36:44Z</time>
      </trkpt>
      <trkpt lat="48.8405" lon="7.38927">
        <ele>385.619232</ele>
        <time>2011-09-10T13:37:24Z</time>
      </trkpt>
      <trkpt lat="48.84036" lon="7.38967">
        <ele>390.291107</ele>
        <time>2011-09-10T13:37:47Z</time>
      </trkpt>
      <trkpt lat="48.84004" lon="7.38964">
        <ele>385.947357</ele>
        <time>2011-09-10T13:40:50Z</time>
      </trkpt>
      <trkpt lat="48.83965" lon="7.38895">
        <ele>387.931732</ele>
        <time>2011-09-10T13:41:26Z</time>
      </trkpt>
      <trkpt lat="48.83935" lon="7.38884">
        <ele>390.525482</ele>
        <time>2011-09-10T13:41:45Z</time>
      </trkpt>
      <trkpt lat="48.83874" lon="7.38905">
        <ele>392.369232</ele>
        <time>2011-09-10T13:42:06Z</time>
      </trkpt>
      <trkpt lat="48.83821" lon="7.38946">
        <ele>413.67392</ele>
        <time>2011-09-10T13:42:25Z</time>
      </trkpt>
      <trkpt lat="48.83792" lon="7.38954">
        <ele>420.634857</ele>
        <time>2011-09-10T13:42:32Z</time>
      </trkpt>
      <trkpt lat="48.83694" lon="7.3896">
        <ele>436.11142</ele>
        <time>2011-09-10T13:42:49Z</time>
      </trkpt>
      <trkpt lat="48.83673" lon="7.38984">
        <ele>420.041107</ele>
        <time>2011-09-10T13:42:58Z</time>
      </trkpt>
      <trkpt lat="48.83614" lon="7.38983">
        <ele>410.056732</ele>
        <time>2011-09-10T13:44:29Z</time>
      </trkpt>
      <trkpt lat="48.83594" lon="7.39015">
        <ele>399.697357</ele>
        <time>2011-09-10T13:44:45Z</time>
      </trkpt>
      <trkpt lat="48.83602" lon="7.39059">
        <ele>394.931732</ele>
        <time>2011-09-10T13:44:56Z</time>
      </trkpt>
      <trkpt lat="48.83649" lon="7.39227">
        <ele>398.572357</ele>
        <time>2011-09-10T13:45:49Z</time>
      </trkpt>
      <trkpt lat="48.83678" lon="7.39357">
        <ele>388.509857</ele>
        <time>2011-09-10T13:46:33Z</time>
      </trkpt>
      <trkpt lat="48.83707" lon="7.39441">
        <ele>394.306732</ele>
        <time>2011-09-10T13:47:03Z</time>
      </trkpt>
      <trkpt lat="48.8373" lon="7.39581">
        <ele>412.119232</ele>
        <time>2011-09-10T13:47:39Z</time>
      </trkpt>
      <trkpt lat="48.83706" lon="7.39664">
        <ele>431.134857</ele>
        <time>2011-09-10T13:47:52Z</time>
      </trkpt>
      <trkpt lat="48.83708" lon="7.39759">
        <ele>443.572357</ele>
        <time>2011-09-10T13:48:03Z</time>
      </trkpt>
      <trkpt lat="48.83717" lon="7.39807">
        <ele>435.377045</ele>
        <time>2011-09-10T13:48:09Z</time>
      </trkpt>
      <trkpt lat="48.83702" lon="7.39846">
        <ele>432.306732</ele>
        <time>2011-09-10T13:48:19Z</time>
      </trkpt>
      <trkpt lat="48.837" lon="7.39885">
        <ele>409.291107</ele>
        <time>2011-09-10T13:48:48Z</time>
      </trkpt>
      <trkpt lat="48.83678" lon="7.39886">
        <ele>384.744232</ele>
        <time>2011-09-10T13:49:19Z</time>
      </trkpt>
      <trkpt lat="48.83659" lon="7.39854">
        <ele>374.884857</ele>
        <time>2011-09-10T13:49:31Z</time>
      </trkpt>
      <trkpt lat="48.83646" lon="7.39809">
        <ele>368.908295</ele>
        <time>2011-09-10T13:49:37Z</time>
      </trkpt>
      <trkpt lat="48.83636" lon="7.39763">
        <ele>367.533295</ele>
        <time>2011-09-10T13:49:43Z</time>
      </trkpt>
      <trkpt lat="48.83634" lon="7.39618">
        <ele>369.51767</ele>
        <time>2011-09-10T13:49:55Z</time>
      </trkpt>
      <trkpt lat="48.83627" lon="7.39569">
        <ele>372.384857</ele>
        <time>2011-09-10T13:49:59Z</time>
      </trkpt>
      <trkpt lat="48.83574" lon="7.39387">
        <ele>389.009857</ele>
        <time>2011-09-10T13:50:16Z</time>
      </trkpt>
      <trkpt lat="48.83558" lon="7.39342">
        <ele>394.26767</ele>
        <time>2011-09-10T13:50:22Z</time>
      </trkpt>
      <trkpt lat="48.83508" lon="7.39274">
        <ele>399.502045</ele>
        <time>2011-09-10T13:50:32Z</time>
      </trkpt>
      <trkpt lat="48.83454" lon="7.39155">
        <ele>395.837982</ele>
        <time>2011-09-10T13:50:45Z</time>
      </trkpt>
      <trkpt lat="48.83446" lon="7.39108">
        <ele>390.041107</ele>
        <time>2011-09-10T13:50:53Z</time>
      </trkpt>
      <trkpt lat="48.83467" lon="7.39076">
        <ele>388.228607</ele>
        <time>2011-09-10T13:51:43Z</time>
      </trkpt>
      <trkpt lat="48.83442" lon="7.39097">
        <ele>397.439545</ele>
        <time>2011-09-10T13:51:59Z</time>
      </trkpt>
      <trkpt lat="48.8341" lon="7.39178">
        <ele>414.681732</ele>
        <time>2011-09-10T13:52:22Z</time>
      </trkpt>
      <trkpt lat="48.83384" lon="7.39266">
        <ele>416.908295</ele>
        <time>2011-09-10T13:52:35Z</time>
      </trkpt>
      <trkpt lat="48.83354" lon="7.39272">
        <ele>420.752045</ele>
        <time>2011-09-10T13:52:43Z</time>
      </trkpt>
      <trkpt lat="48.83334" lon="7.39308">
        <ele>414.20517</ele>
        <time>2011-09-10T13:53:11Z</time>
      </trkpt>
      <trkpt lat="48.83305" lon="7.39317">
        <ele>410.541107</ele>
        <time>2011-09-10T13:53:21Z</time>
      </trkpt>
      <trkpt lat="48.83274" lon="7.3934">
        <ele>412.98642</ele>
        <time>2011-09-10T13:53:28Z</time>
      </trkpt>
      <trkpt lat="48.83241" lon="7.39354">
        <ele>417.158295</ele>
        <time>2011-09-10T13:53:37Z</time>
      </trkpt>
      <trkpt lat="48.83218" lon="7.39387">
        <ele>420.134857</ele>
        <time>2011-09-10T13:53:43Z</time>
      </trkpt>
      <trkpt lat="48.83191" lon="7.39409">
        <ele>413.900482</ele>
        <time>2011-09-10T13:53:51Z</time>
      </trkpt>
      <trkpt lat="48.83134" lon="7.39421">
        <ele>389.916107</ele>
        <time>2011-09-10T13:54:23Z</time>
      </trkpt>
      <trkpt lat="48.83072" lon="7.39393">
        <ele>390.127045</ele>
        <time>2011-09-10T13:54:37Z</time>
      </trkpt>
      <trkpt lat="48.83041" lon="7.39393">
        <ele>382.98642</ele>
        <time>2011-09-10T13:54:44Z</time>
      </trkpt>
      <trkpt lat="48.82983" lon="7.39418">
        <ele>372.166107</ele>
        <time>2011-09-10T13:54:59Z</time>
      </trkpt>
      <trkpt lat="48.82933" lon="7.3947">
        <ele>360.744232</ele>
        <time>2011-09-10T13:55:12Z</time>
      </trkpt>
      <trkpt lat="48.82875" lon="7.39501">
        <ele>344.08017</ele>
        <time>2011-09-10T13:55:38Z</time>
      </trkpt>
      <trkpt lat="48.82848" lon="7.39527">
        <ele>339.61142</ele>
        <time>2011-09-10T13:55:57Z</time>
      </trkpt>
      <trkpt lat="48.82813" lon="7.39594">
        <ele>322.252045</ele>
        <time>2011-09-10T13:56:43Z</time>
      </trkpt>
      <trkpt lat="48.82791" lon="7.39621">
        <ele>309.900482</ele>
        <time>2011-09-10T13:57:05Z</time>
      </trkpt>
      <trkpt lat="48.82759" lon="7.39695">
        <ele>297.314545</ele>
        <time>2011-09-10T13:57:47Z</time>
      </trkpt>
      <trkpt lat="48.82751" lon="7.3965">
        <ele>300.564545</ele>
        <time>2011-09-10T14:08:05Z</time>
      </trkpt>
      <trkpt lat="48.82761" lon="7.39561">
        <ele>310.322357</ele>
        <time>2011-09-10T14:08:30Z</time>
      </trkpt>
      <trkpt lat="48.82745" lon="7.39376">
        <ele>329.197357</ele>
        <time>2011-09-10T14:09:13Z</time>
      </trkpt>
      <trkpt lat="48.82738" lon="7.3933">
        <ele>337.04892</ele>
        <time>2011-09-10T14:09:24Z</time>
      </trkpt>
      <trkpt lat="48.82712" lon="7.39247">
        <ele>348.884857</ele>
        <time>2011-09-10T14:09:45Z</time>
      </trkpt>
      <trkpt lat="48.82716" lon="7.39202">
        <ele>357.45517</ele>
        <time>2011-09-10T14:09:54Z</time>
      </trkpt>
      <trkpt lat="48.827" lon="7.39117">
        <ele>375.127045</ele>
        <time>2011-09-10T14:10:22Z</time>
      </trkpt>
      <trkpt lat="48.82679" lon="7.39083">
        <ele>384.962982</ele>
        <time>2011-09-10T14:10:56Z</time>
      </trkpt>
      <trkpt lat="48.82663" lon="7.39039">
        <ele>381.556732</ele>
        <time>2011-09-10T14:11:14Z</time>
      </trkpt>
      <trkpt lat="48.82642" lon="7.39007">
        <ele>376.806732</ele>
        <time>2011-09-10T14:11:35Z</time>
      </trkpt>
      <trkpt lat="48.82614" lon="7.38987">
        <ele>375.58017</ele>
        <time>2011-09-10T14:11:54Z</time>
      </trkpt>
      <trkpt lat="48.82584" lon="7.3899">
        <ele>369.087982</ele>
        <time>2011-09-10T14:12:45Z</time>
      </trkpt>
      <trkpt lat="48.82561" lon="7.39012">
        <ele>355.056732</ele>
        <time>2011-09-10T14:13:10Z</time>
      </trkpt>
      <trkpt lat="48.82567" lon="7.39146">
        <ele>331.962982</ele>
        <time>2011-09-10T14:15:33Z</time>
      </trkpt>
      <trkpt lat="48.82563" lon="7.39325">
        <ele>367.51767</ele>
        <time>2011-09-10T14:18:39Z</time>
      </trkpt>
      <trkpt lat="48.82574" lon="7.39369">
        <ele>367.806732</ele>
        <time>2011-09-10T14:24:23Z</time>
      </trkpt>
      <trkpt lat="48.82572" lon="7.39471">
        <ele>374.970795</ele>
        <time>2011-09-10T14:24:42Z</time>
      </trkpt>
      <trkpt lat="48.82561" lon="7.39657">
        <ele>390.041107</ele>
        <time>2011-09-10T14:25:28Z</time>
      </trkpt>
      <trkpt lat="48.82555" lon="7.39702">
        <ele>394.978607</ele>
        <time>2011-09-10T14:25:37Z</time>
      </trkpt>
      <trkpt lat="48.82539" lon="7.3974">
        <ele>390.509857</ele>
        <time>2011-09-10T14:25:51Z</time>
      </trkpt>
      <trkpt lat="48.82493" lon="7.39682">
        <ele>393.494232</ele>
        <time>2011-09-10T14:28:30Z</time>
      </trkpt>
      <trkpt lat="48.82423" lon="7.39483">
        <ele>412.056732</ele>
        <time>2011-09-10T14:32:12Z</time>
      </trkpt>
      <trkpt lat="48.82416" lon="7.3944">
        <ele>403.377045</ele>
        <time>2011-09-10T14:42:08Z</time>
      </trkpt>
      <trkpt lat="48.82391" lon="7.39407">
        <ele>399.314545</ele>
        <time>2011-09-10T14:42:18Z</time>
      </trkpt>
      <trkpt lat="48.82335" lon="7.3936">
        <ele>395.845795</ele>
        <time>2011-09-10T14:42:34Z</time>
      </trkpt>
      <trkpt lat="48.82247" lon="7.393">
        <ele>406.853607</ele>
        <time>2011-09-10T14:42:46Z</time>
      </trkpt>
      <trkpt lat="48.82167" lon="7.39219">
        <ele>415.408295</ele>
        <time>2011-09-10T14:43:04Z</time>
      </trkpt>
      <trkpt lat="48.82067" lon="7.39177">
        <ele>422.783295</ele>
        <time>2011-09-10T14:43:15Z</time>
      </trkpt>
      <trkpt lat="48.81932" lon="7.39067">
        <ele>433.494232</ele>
        <time>2011-09-10T14:43:29Z</time>
      </trkpt>
      <trkpt lat="48.81827" lon="7.39034">
        <ele>439.494232</ele>
        <time>2011-09-10T14:43:39Z</time>
      </trkpt>
      <trkpt lat="48.818" lon="7.39009">
        <ele>438.92392</ele>
        <time>2011-09-10T14:43:42Z</time>
      </trkpt>
      <trkpt lat="48.81777" lon="7.38978">
        <ele>438.939545</ele>
        <time>2011-09-10T14:43:47Z</time>
      </trkpt>
      <trkpt lat="48.8176" lon="7.3894">
        <ele>433.20517</ele>
        <time>2011-09-10T14:44:07Z</time>
      </trkpt>
      <trkpt lat="48.81752" lon="7.38895">
        <ele>426.377045</ele>
        <time>2011-09-10T14:44:19Z</time>
      </trkpt>
      <trkpt lat="48.8172" lon="7.38922">
        <ele>437.228607</ele>
        <time>2011-09-10T14:44:58Z</time>
      </trkpt>
      <trkpt lat="48.81691" lon="7.38934">
        <ele>441.970795</ele>
        <time>2011-09-10T14:45:06Z</time>
      </trkpt>
      <trkpt lat="48.81684" lon="7.38974">
        <ele>457.478607</ele>
        <time>2011-09-10T14:45:26Z</time>
      </trkpt>
      <trkpt lat="48.81709" lon="7.39058">
        <ele>468.244232</ele>
        <time>2011-09-10T14:45:53Z</time>
      </trkpt>
      <trkpt lat="48.81685" lon="7.3909">
        <ele>477.884857</ele>
        <time>2011-09-10T14:46:03Z</time>
      </trkpt>
      <trkpt lat="48.81391" lon="7.3912">
        <ele>486.556732</ele>
        <time>2011-09-10T14:46:13Z</time>
      </trkpt>
      <trkpt lat="48.81389" lon="7.39165">
        <ele>481.252045</ele>
        <time>2011-09-10T14:47:40Z</time>
      </trkpt>
      <trkpt lat="48.81364" lon="7.39204">
        <ele>487.95517</ele>
        <time>2011-09-10T14:47:58Z</time>
      </trkpt>
      <trkpt lat="48.81351" lon="7.39245">
        <ele>482.08017</ele>
        <time>2011-09-10T14:48:10Z</time>
      </trkpt>
      <trkpt lat="48.81301" lon="7.39267">
        <ele>478.939545</ele>
        <time>2011-09-10T14:48:21Z</time>
      </trkpt>
      <trkpt lat="48.81248" lon="7.39204">
        <ele>443.572357</ele>
        <time>2011-09-10T14:48:44Z</time>
      </trkpt>
      <trkpt lat="48.81227" lon="7.3917">
        <ele>384.775482</ele>
        <time>2011-09-10T14:49:02Z</time>
      </trkpt>
      <trkpt lat="48.8118" lon="7.39123">
        <ele>354.697357</ele>
        <time>2011-09-10T14:50:02Z</time>
      </trkpt>
      <trkpt lat="48.81087" lon="7.39122">
        <ele>352.127045</ele>
        <time>2011-09-10T14:50:09Z</time>
      </trkpt>
      <trkpt lat="48.80992" lon="7.3911">
        <ele>350.002045</ele>
        <time>2011-09-10T14:50:16Z</time>
      </trkpt>
      <trkpt lat="48.80966" lon="7.39086">
        <ele>350.494232</ele>
        <time>2011-09-10T14:50:47Z</time>
      </trkpt>
      <trkpt lat="48.80904" lon="7.39069">
        <ele>345.916107</ele>
        <time>2011-09-10T14:51:03Z</time>
      </trkpt>
      <trkpt lat="48.80578" lon="7.39066">
        <ele>341.095795</ele>
        <time>2011-09-10T14:51:11Z</time>
      </trkpt>
      <trkpt lat="48.8053" lon="7.39058">
        <ele>339.806732</ele>
        <time>2011-09-10T14:51:12Z</time>
      </trkpt>
      <trkpt lat="48.80505" lon="7.3909">
        <ele>334.377045</ele>
        <time>2011-09-10T14:51:16Z</time>
      </trkpt>
      <trkpt lat="48.80495" lon="7.39134">
        <ele>329.744232</ele>
        <time>2011-09-10T14:51:20Z</time>
      </trkpt>
      <trkpt lat="48.80475" lon="7.39172">
        <ele>322.103607</ele>
        <time>2011-09-10T14:51:24Z</time>
      </trkpt>
      <trkpt lat="48.80478" lon="7.39262">
        <ele>307.619232</ele>
        <time>2011-09-10T14:51:34Z</time>
      </trkpt>
      <trkpt lat="48.80468" lon="7.39304">
        <ele>300.54892</ele>
        <time>2011-09-10T14:51:49Z</time>
      </trkpt>
      <trkpt lat="48.80469" lon="7.39256">
        <ele>302.197357</ele>
        <time>2011-09-10T14:52:52Z</time>
      </trkpt>
      <trkpt lat="48.80461" lon="7.39211">
        <ele>306.73642</ele>
        <time>2011-09-10T14:53:03Z</time>
      </trkpt>
      <trkpt lat="48.80413" lon="7.39182">
        <ele>274.056732</ele>
        <time>2011-09-10T14:53:49Z</time>
      </trkpt>
      <trkpt lat="48.80413" lon="7.39085">
        <ele>267.853607</ele>
        <time>2011-09-10T14:54:17Z</time>
      </trkpt>
      <trkpt lat="48.8042" lon="7.39037">
        <ele>264.431732</ele>
        <time>2011-09-10T14:54:26Z</time>
      </trkpt>
      <trkpt lat="48.80439" lon="7.39">
        <ele>263.791107</ele>
        <time>2011-09-10T14:54:33Z</time>
      </trkpt>
      <trkpt lat="48.80521" lon="7.3891">
        <ele>270.658295</ele>
        <time>2011-09-10T14:54:55Z</time>
      </trkpt>
      <trkpt lat="48.80531" lon="7.38864">
        <ele>274.095795</ele>
        <time>2011-09-10T14:55:00Z</time>
      </trkpt>
      <trkpt lat="48.80465" lon="7.3877">
        <ele>289.119232</ele>
        <time>2011-09-10T14:55:17Z</time>
      </trkpt>
      <trkpt lat="48.80436" lon="7.38743">
        <ele>291.67392</ele>
        <time>2011-09-10T14:55:21Z</time>
      </trkpt>
      <trkpt lat="48.80415" lon="7.38708">
        <ele>295.791107</ele>
        <time>2011-09-10T14:55:27Z</time>
      </trkpt>
      <trkpt lat="48.80359" lon="7.3867">
        <ele>301.634857</ele>
        <time>2011-09-10T14:55:36Z</time>
      </trkpt>
      <trkpt lat="48.80292" lon="7.38595">
        <ele>306.70517</ele>
        <time>2011-09-10T14:55:53Z</time>
      </trkpt>
      <trkpt lat="48.80274" lon="7.38506">
        <ele>305.252045</ele>
        <time>2011-09-10T14:56:11Z</time>
      </trkpt>
      <trkpt lat="48.80278" lon="7.38414">
        <ele>300.416107</ele>
        <time>2011-09-10T14:56:26Z</time>
      </trkpt>
      <trkpt lat="48.80302" lon="7.3827">
        <ele>301.150482</ele>
        <time>2011-09-10T14:56:49Z</time>
      </trkpt>
      <trkpt lat="48.80315" lon="7.38224">
        <ele>296.314545</ele>
        <time>2011-09-10T14:56:55Z</time>
      </trkpt>
      <trkpt lat="48.80358" lon="7.38153">
        <ele>285.525482</ele>
        <time>2011-09-10T14:57:07Z</time>
      </trkpt>
      <trkpt lat="48.80375" lon="7.38108">
        <ele>282.39267</ele>
        <time>2011-09-10T14:57:17Z</time>
      </trkpt>
      <trkpt lat="48.80401" lon="7.38126">
        <ele>274.033295</ele>
        <time>2011-09-10T14:57:59Z</time>
      </trkpt>
      <trkpt lat="48.80397" lon="7.3808">
        <ele>271.931732</ele>
        <time>2011-09-10T14:58:09Z</time>
      </trkpt>
      <trkpt lat="48.80477" lon="7.38001">
        <ele>286.900482</ele>
        <time>2011-09-10T14:58:33Z</time>
      </trkpt>
      <trkpt lat="48.8057" lon="7.37949">
        <ele>299.212982</ele>
        <time>2011-09-10T14:58:51Z</time>
      </trkpt>
      <trkpt lat="48.80652" lon="7.37881">
        <ele>322.67392</ele>
        <time>2011-09-10T14:59:12Z</time>
      </trkpt>
      <trkpt lat="48.80682" lon="7.37875">
        <ele>329.23642</ele>
        <time>2011-09-10T14:59:19Z</time>
      </trkpt>
      <trkpt lat="48.80774" lon="7.37834">
        <ele>308.478607</ele>
        <time>2011-09-10T14:59:36Z</time>
      </trkpt>
      <trkpt lat="48.8083" lon="7.37774">
        <ele>301.978607</ele>
        <time>2011-09-10T14:59:48Z</time>
      </trkpt>
      <trkpt lat="48.80876" lon="7.37712">
        <ele>303.712982</ele>
        <time>2011-09-10T14:59:59Z</time>
      </trkpt>
      <trkpt lat="48.80938" lon="7.37671">
        <ele>311.744232</ele>
        <time>2011-09-10T15:00:12Z</time>
      </trkpt>
      <trkpt lat="48.80999" lon="7.3766">
        <ele>328.345795</ele>
        <time>2011-09-10T15:00:24Z</time>
      </trkpt>
      <trkpt lat="48.81025" lon="7.37635">
        <ele>320.83017</ele>
        <time>2011-09-10T15:00:27Z</time>
      </trkpt>
      <trkpt lat="48.81147" lon="7.37674">
        <ele>317.837982</ele>
        <time>2011-09-10T15:00:51Z</time>
      </trkpt>
      <trkpt lat="48.8121" lon="7.37641">
        <ele>306.61142</ele>
        <time>2011-09-10T15:01:01Z</time>
      </trkpt>
      <trkpt lat="48.81237" lon="7.37612">
        <ele>310.877045</ele>
        <time>2011-09-10T15:01:07Z</time>
      </trkpt>
      <trkpt lat="48.81267" lon="7.37598">
        <ele>317.697357</ele>
        <time>2011-09-10T15:01:13Z</time>
      </trkpt>
      <trkpt lat="48.81294" lon="7.37574">
        <ele>322.98642</ele>
        <time>2011-09-10T15:01:19Z</time>
      </trkpt>
      <trkpt lat="48.81351" lon="7.37554">
        <ele>344.720795</ele>
        <time>2011-09-10T15:01:37Z</time>
      </trkpt>
      <trkpt lat="48.81372" lon="7.37568">
        <ele>317.939545</ele>
        <time>2011-09-10T15:03:22Z</time>
      </trkpt>
      <trkpt lat="48.81402" lon="7.37573">
        <ele>321.095795</ele>
        <time>2011-09-10T15:03:53Z</time>
      </trkpt>
      <trkpt lat="48.81428" lon="7.37561">
        <ele>336.45517</ele>
        <time>2011-09-10T15:04:10Z</time>
      </trkpt>
      <trkpt lat="48.8145" lon="7.37536">
        <ele>352.556732</ele>
        <time>2011-09-10T15:04:25Z</time>
      </trkpt>
      <trkpt lat="48.81479" lon="7.37523">
        <ele>361.314545</ele>
        <time>2011-09-10T15:04:36Z</time>
      </trkpt>
      <trkpt lat="48.815" lon="7.37489">
        <ele>362.462982</ele>
        <time>2011-09-10T15:05:02Z</time>
      </trkpt>
      <trkpt lat="48.8153" lon="7.37484">
        <ele>367.431732</ele>
        <time>2011-09-10T15:05:15Z</time>
      </trkpt>
      <trkpt lat="48.81552" lon="7.37462">
        <ele>382.814545</ele>
        <time>2011-09-10T15:05:30Z</time>
      </trkpt>
      <trkpt lat="48.81589" lon="7.37399">
        <ele>362.689545</ele>
        <time>2011-09-10T15:06:22Z</time>
      </trkpt>
      <trkpt lat="48.81617" lon="7.37414">
        <ele>352.127045</ele>
        <time>2011-09-10T15:06:59Z</time>
      </trkpt>
      <trkpt lat="48.81645" lon="7.37407">
        <ele>340.478607</ele>
        <time>2011-09-10T15:07:22Z</time>
      </trkpt>
      <trkpt lat="48.81674" lon="7.3743">
        <ele>330.79892</ele>
        <time>2011-09-10T15:07:49Z</time>
      </trkpt>
      <trkpt lat="48.817" lon="7.3742">
        <ele>316.103607</ele>
        <time>2011-09-10T15:08:10Z</time>
      </trkpt>
      <trkpt lat="48.81724" lon="7.37447">
        <ele>308.541107</ele>
        <time>2011-09-10T15:08:28Z</time>
      </trkpt>
      <trkpt lat="48.81752" lon="7.37447">
        <ele>294.45517</ele>
        <time>2011-09-10T15:09:10Z</time>
      </trkpt>
      <trkpt lat="48.81783" lon="7.37474">
        <ele>293.103607</ele>
        <time>2011-09-10T15:09:25Z</time>
      </trkpt>
      <trkpt lat="48.81812" lon="7.37465">
        <ele>286.814545</ele>
        <time>2011-09-10T15:11:13Z</time>
      </trkpt>
      <trkpt lat="48.8187" lon="7.37495">
        <ele>281.04892</ele>
        <time>2011-09-10T15:14:43Z</time>
      </trkpt>
      <trkpt lat="48.81926" lon="7.37537">
        <ele>282.595795</ele>
        <time>2011-09-10T15:15:02Z</time>
      </trkpt>
      <trkpt lat="48.8195" lon="7.37569">
        <ele>285.26767</ele>
        <time>2011-09-10T15:15:14Z</time>
      </trkpt>
      <trkpt lat="48.81977" lon="7.37587">
        <ele>291.64267</ele>
        <time>2011-09-10T15:15:32Z</time>
      </trkpt>
      <trkpt lat="48.82007" lon="7.37617">
        <ele>294.58017</ele>
        <time>2011-09-10T15:15:39Z</time>
      </trkpt>
      <trkpt lat="48.82096" lon="7.3767">
        <ele>304.275482</ele>
        <time>2011-09-10T15:15:57Z</time>
      </trkpt>
      <trkpt lat="48.82122" lon="7.37709">
        <ele>309.36142</ele>
        <time>2011-09-10T15:16:03Z</time>
      </trkpt>
      <trkpt lat="48.82145" lon="7.37711">
        <ele>330.67392</ele>
        <time>2011-09-10T15:16:29Z</time>
      </trkpt>
      <trkpt lat="48.8217" lon="7.37737">
        <ele>339.619232</ele>
        <time>2011-09-10T15:16:43Z</time>
      </trkpt>
      <trkpt lat="48.82224" lon="7.37765">
        <ele>354.04892</ele>
        <time>2011-09-10T15:17:07Z</time>
      </trkpt>
      <trkpt lat="48.82273" lon="7.37823">
        <ele>352.533295</ele>
        <time>2011-09-10T15:17:35Z</time>
      </trkpt>
      <trkpt lat="48.82293" lon="7.37858">
        <ele>353.072357</ele>
        <time>2011-09-10T15:17:53Z</time>
      </trkpt>
      <trkpt lat="48.82272" lon="7.37877">
        <ele>331.127045</ele>
        <time>2011-09-10T15:18:13Z</time>
      </trkpt>
      <trkpt lat="48.82281" lon="7.37964">
        <ele>314.533295</ele>
        <time>2011-09-10T15:18:50Z</time>
      </trkpt>
      <trkpt lat="48.82279" lon="7.38012">
        <ele>313.603607</ele>
        <time>2011-09-10T15:19:10Z</time>
      </trkpt>
      <trkpt lat="48.82271" lon="7.38057">
        <ele>312.42392</ele>
        <time>2011-09-10T15:19:26Z</time>
      </trkpt>
      <trkpt lat="48.82251" lon="7.38092">
        <ele>312.189545</ele>
        <time>2011-09-10T15:19:41Z</time>
      </trkpt>
      <trkpt lat="48.82252" lon="7.3814">
        <ele>316.822357</ele>
        <time>2011-09-10T15:19:57Z</time>
      </trkpt>
      <trkpt lat="48.82262" lon="7.38182">
        <ele>321.17392</ele>
        <time>2011-09-10T15:20:10Z</time>
      </trkpt>
      <trkpt lat="48.8223" lon="7.38358">
        <ele>311.39267</ele>
        <time>2011-09-10T15:21:37Z</time>
      </trkpt>
      <trkpt lat="48.82188" lon="7.3842">
        <ele>314.51767</ele>
        <time>2011-09-10T15:23:09Z</time>
      </trkpt>
      <trkpt lat="48.82164" lon="7.38596">
        <ele>310.322357</ele>
        <time>2011-09-10T15:25:25Z</time>
      </trkpt>
      <trkpt lat="48.8219" lon="7.3862">
        <ele>307.916107</ele>
        <time>2011-09-10T15:26:30Z</time>
      </trkpt>
      <trkpt lat="48.82236" lon="7.38734">
        <ele>317.877045</ele>
        <time>2011-09-10T15:37:47Z</time>
      </trkpt>
      <trkpt lat="48.82263" lon="7.38715">
        <ele>322.86142</ele>
        <time>2011-09-10T15:38:20Z</time>
      </trkpt>
      <trkpt lat="48.82293" lon="7.38731">
        <ele>324.54892</ele>
        <time>2011-09-10T15:38:32Z</time>
      </trkpt>
      <trkpt lat="48.82374" lon="7.38796">
        <ele>327.26767</ele>
        <time>2011-09-10T15:38:55Z</time>
      </trkpt>
      <trkpt lat="48.824" lon="7.38826">
        <ele>326.98642</ele>
        <time>2011-09-10T15:39:04Z</time>
      </trkpt>
      <trkpt lat="48.82487" lon="7.38891">
        <ele>341.79892</ele>
        <time>2011-09-10T15:39:29Z</time>
      </trkpt>
      <trkpt lat="48.82568" lon="7.38972">
        <ele>351.212982</ele>
        <time>2011-09-10T15:39:49Z</time>
      </trkpt>
      <trkpt lat="48.82642" lon="7.39064">
        <ele>335.869232</ele>
        <time>2011-09-10T15:40:13Z</time>
      </trkpt>
      <trkpt lat="48.82657" lon="7.39105">
        <ele>322.11142</ele>
        <time>2011-09-10T15:40:20Z</time>
      </trkpt>
      <trkpt lat="48.82699" lon="7.39184">
        <ele>315.337982</ele>
        <time>2011-09-10T15:40:29Z</time>
      </trkpt>
      <trkpt lat="48.82706" lon="7.39233">
        <ele>312.79892</ele>
        <time>2011-09-10T15:40:36Z</time>
      </trkpt>
      <trkpt lat="48.82746" lon="7.39364">
        <ele>312.61142</ele>
        <time>2011-09-10T15:40:51Z</time>
      </trkpt>
      <trkpt lat="48.82759" lon="7.3946">
        <ele>308.603607</ele>
        <time>2011-09-10T15:41:02Z</time>
      </trkpt>
      <trkpt lat="48.82766" lon="7.39657">
        <ele>292.752045</ele>
        <time>2011-09-10T15:41:28Z</time>
      </trkpt>
      <trkpt lat="48.82837" lon="7.39554">
        <ele>303.431732</ele>
        <time>2011-09-10T15:42:01Z</time>
      </trkpt>
      <trkpt lat="48.82864" lon="7.39535">
        <ele>308.98642</ele>
        <time>2011-09-10T15:42:08Z</time>
      </trkpt>
      <trkpt lat="48.82886" lon="7.39571">
        <ele>289.744232</ele>
        <time>2011-09-10T15:42:31Z</time>
      </trkpt>
      <trkpt lat="48.82899" lon="7.39617">
        <ele>289.978607</ele>
        <time>2011-09-10T15:42:36Z</time>
      </trkpt>
      <trkpt lat="48.8292" lon="7.39655">
        <ele>283.478607</ele>
        <time>2011-09-10T15:42:39Z</time>
      </trkpt>
      <trkpt lat="48.82935" lon="7.39743">
        <ele>266.314545</ele>
        <time>2011-09-10T15:42:52Z</time>
      </trkpt>
      <trkpt lat="48.82936" lon="7.40032">
        <ele>229.903366</ele>
        <time>2011-09-10T15:43:28Z</time>
      </trkpt>
      <trkpt lat="48.82958" lon="7.40234">
        <ele>223.418991</ele>
        <time>2011-09-10T15:43:49Z</time>
      </trkpt>
      <trkpt lat="48.82941" lon="7.40472">
        <ele>232.77446</ele>
        <time>2011-09-10T15:44:35Z</time>
      </trkpt>
      <trkpt lat="48.82892" lon="7.40525">
        <ele>240.821335</ele>
        <time>2011-09-10T15:44:54Z</time>
      </trkpt>
      <trkpt lat="48.82797" lon="7.40572">
        <ele>239.422897</ele>
        <time>2011-09-10T15:45:14Z</time>
      </trkpt>
      <trkpt lat="48.8276" lon="7.40569">
        <ele>236.731491</ele>
        <time>2011-09-10T15:45:18Z</time>
      </trkpt>
      <trkpt lat="48.82709" lon="7.40502">
        <ele>228.083054</ele>
        <time>2011-09-10T15:45:24Z</time>
      </trkpt>
      <trkpt lat="48.82679" lon="7.40473">
        <ele>224.934616</ele>
        <time>2011-09-10T15:45:27Z</time>
      </trkpt>
      <trkpt lat="48.82609" lon="7.40451">
        <ele>219.36821</ele>
        <time>2011-09-10T15:45:33Z</time>
      </trkpt>
      <trkpt lat="48.82477" lon="7.4044">
        <ele>209.235397</ele>
        <time>2011-09-10T15:45:48Z</time>
      </trkpt>
      <trkpt lat="48.82448" lon="7.40451">
        <ele>206.379929</ele>
        <time>2011-09-10T15:45:54Z</time>
      </trkpt>
      <trkpt lat="48.82398" lon="7.4058">
        <ele>198.551804</ele>
        <time>2011-09-10T15:46:10Z</time>
      </trkpt>
      <trkpt lat="48.82324" lon="7.40678">
        <ele>196.89946</ele>
        <time>2011-09-10T15:46:24Z</time>
      </trkpt>
      <trkpt lat="48.82294" lon="7.40651">
        <ele>194.950241</ele>
        <time>2011-09-10T15:46:31Z</time>
      </trkpt>
      <trkpt lat="48.82299" lon="7.4056">
        <ele>192.278366</ele>
        <time>2011-09-10T15:47:14Z</time>
      </trkpt>
      <trkpt lat="48.82308" lon="7.40611">
        <ele>198.329147</ele>
        <time>2011-09-10T15:48:04Z</time>
      </trkpt>
      <trkpt lat="48.8229" lon="7.40575">
        <ele>199.817429</ele>
        <time>2011-09-10T15:48:40Z</time>
      </trkpt>
    </trkseg>
  </trk>
</gpx>